createdAt,value
2023-02-17T00:01:01.731Z,5.72
2023-02-17T00:03:28.660Z,5.70
2023-02-17T00:05:55.438Z,5.65
2023-02-17T00:08:22.425Z,5.40
2023-02-17T00:10:58.013Z,5.38
2023-02-17T00:13:25.539Z,5.40
2023-02-17T00:15:52.712Z,4.88
2023-02-17T00:18:19.822Z,5.43
2023-02-17T00:20:46.614Z,5.78
2023-02-17T00:23:13.418Z,4.80
2023-02-17T00:25:40.655Z,5.13
2023-02-17T00:28:07.684Z,5.40
2023-02-17T00:30:34.589Z,5.45
2023-02-17T00:33:01.406Z,6.38
2023-02-17T00:35:28.163Z,5.22
2023-02-17T00:37:54.891Z,4.82
2023-02-17T00:40:21.925Z,5.28
2023-02-17T00:42:49.076Z,5.78
2023-02-17T00:45:16.047Z,5.70
2023-02-17T00:47:42.764Z,6.03
2023-02-17T00:50:09.990Z,5.75
2023-02-17T00:52:36.760Z,6.05
2023-02-17T00:55:03.617Z,5.32
2023-02-17T00:57:32.405Z,5.43
2023-02-17T00:59:59.324Z,5.75
2023-02-17T01:02:26.188Z,5.13
2023-02-17T01:04:53.912Z,4.50
2023-02-17T01:07:20.673Z,5.40
2023-02-17T01:09:47.443Z,5.18
2023-02-17T01:12:14.281Z,5.15
2023-02-17T01:14:41.111Z,5.45
2023-02-17T01:17:07.836Z,5.50
2023-02-17T01:19:34.625Z,5.30
2023-02-17T01:22:01.407Z,5.18
2023-02-17T01:24:28.254Z,6.47
2023-02-17T01:26:55.299Z,6.28
2023-02-17T01:29:22.158Z,5.57
2023-02-17T01:31:48.946Z,5.90
2023-02-17T01:34:15.936Z,7.15
2023-02-17T01:36:42.674Z,6.53
2023-02-17T01:39:13.136Z,6.80
2023-02-17T01:41:39.860Z,6.72
2023-02-17T01:44:08.580Z,5.60
2023-02-17T01:46:37.119Z,6.65
2023-02-17T01:49:11.623Z,6.38
2023-02-17T01:51:39.336Z,6.07
2023-02-17T01:54:14.290Z,7.05
2023-02-17T01:56:44.495Z,6.00
2023-02-17T01:59:17.181Z,6.40
2023-02-17T02:01:44.926Z,6.80
2023-02-17T02:04:12.576Z,6.47
2023-02-17T02:06:43.776Z,6.63
2023-02-17T02:09:21.911Z,6.23
2023-02-17T02:11:52.736Z,6.85
2023-02-17T02:14:22.460Z,6.50
2023-02-17T02:17:00.582Z,6.32
2023-02-17T02:20:07.527Z,6.03
2023-02-17T02:22:55.818Z,5.40
2023-02-17T02:25:49.650Z,4.32
2023-02-17T02:28:34.414Z,5.65
2023-02-17T02:31:15.123Z,4.65
2023-02-17T02:33:44.547Z,5.47
2023-02-17T02:36:24.141Z,5.10
2023-02-17T02:39:18.558Z,5.20
2023-02-17T02:41:53.499Z,4.90
2023-02-17T02:44:21.724Z,4.95
2023-02-17T02:47:45.161Z,4.60
2023-02-17T02:50:23.262Z,5.25
2023-02-17T02:53:05.692Z,4.13
2023-02-17T02:55:51.178Z,4.68
2023-02-17T02:58:21.267Z,5.07
2023-02-17T03:00:58.762Z,6.03
2023-02-17T03:03:39.842Z,5.25
2023-02-17T03:06:14.037Z,4.93
2023-02-17T03:08:54.860Z,4.43
2023-02-17T03:11:34.499Z,4.53
2023-02-17T03:14:10.556Z,4.50
2023-02-17T03:16:38.748Z,5.35
2023-02-17T03:19:06.494Z,4.88
2023-02-17T03:21:44.370Z,5.72
2023-02-17T03:24:11.116Z,4.47
2023-02-17T03:26:37.995Z,4.25
2023-02-17T03:29:04.886Z,4.63
2023-02-17T03:31:32.186Z,4.53
2023-02-17T03:33:59.526Z,3.95
2023-02-17T03:36:26.988Z,4.20
2023-02-17T03:38:53.767Z,4.50
2023-02-17T03:41:20.559Z,4.88
2023-02-17T03:46:14.576Z,4.28
2023-02-17T03:48:41.388Z,3.10
2023-02-17T03:51:12.346Z,3.28
2023-02-17T03:53:39.889Z,4.25
2023-02-17T03:56:07.243Z,3.63
2023-02-17T03:58:34.422Z,3.90
2023-02-17T04:01:01.586Z,3.65
2023-02-17T04:03:28.392Z,3.63
2023-02-17T04:05:55.467Z,3.85
2023-02-17T04:08:22.390Z,3.58
2023-02-17T04:10:54.284Z,3.75
2023-02-17T04:13:21.840Z,4.05
2023-02-17T04:15:49.078Z,3.25
2023-02-17T04:18:16.860Z,3.85
2023-02-17T04:20:44.338Z,3.65
2023-02-17T04:23:11.848Z,3.83
2023-02-17T04:25:38.801Z,3.13
2023-02-17T04:28:06.249Z,3.72
2023-02-17T04:30:34.042Z,3.47
2023-02-17T04:33:01.175Z,3.30
2023-02-17T04:35:28.198Z,3.78
2023-02-17T04:37:54.952Z,3.40
2023-02-17T04:40:22.467Z,3.25
2023-02-17T04:42:49.272Z,4.13
2023-02-17T04:45:16.354Z,3.55
2023-02-17T04:47:43.106Z,3.20
2023-02-17T04:50:10.920Z,3.53
2023-02-17T04:52:37.741Z,3.28
2023-02-17T04:55:05.873Z,3.78
2023-02-17T04:57:32.602Z,3.35
2023-02-17T04:59:59.448Z,3.20
2023-02-17T05:02:26.955Z,4.13
2023-02-17T05:04:54.334Z,3.33
2023-02-17T05:07:21.274Z,3.38
2023-02-17T05:09:48.213Z,3.22
2023-02-17T05:12:15.251Z,3.50
2023-02-17T05:14:42.821Z,3.47
2023-02-17T05:17:09.557Z,3.15
2023-02-17T05:19:39.052Z,3.47
2023-02-17T05:22:06.080Z,3.53
2023-02-17T05:24:32.938Z,2.70
2023-02-17T05:26:59.708Z,3.40
2023-02-17T05:29:26.470Z,3.65
2023-02-17T05:31:53.295Z,3.25
2023-02-17T05:34:20.027Z,3.45
2023-02-17T05:36:46.804Z,3.53
2023-02-17T05:39:13.536Z,3.55
2023-02-17T05:41:40.330Z,3.05
2023-02-17T05:44:07.066Z,4.35
2023-02-17T05:46:33.924Z,4.00
2023-02-17T05:49:00.763Z,3.83
2023-02-17T05:51:27.538Z,4.07
2023-02-17T05:53:54.301Z,3.65
2023-02-17T05:56:21.085Z,3.78
2023-02-17T05:58:47.883Z,4.10
2023-02-17T06:01:14.799Z,4.18
2023-02-17T06:03:41.514Z,3.35
2023-02-17T06:06:08.735Z,3.17
2023-02-17T06:08:36.334Z,3.78
2023-02-17T06:11:03.112Z,3.47
2023-02-17T06:13:29.890Z,3.53
2023-02-17T06:15:56.865Z,3.65
2023-02-17T06:18:23.654Z,2.97
2023-02-17T06:20:50.479Z,3.80
2023-02-17T06:23:17.401Z,3.35
2023-02-17T06:25:44.245Z,3.28
2023-02-17T06:28:11.143Z,3.67
2023-02-17T06:30:37.865Z,3.25
2023-02-17T06:33:04.657Z,3.05
2023-02-17T06:35:31.425Z,3.40
2023-02-17T06:37:58.306Z,3.22
2023-02-17T06:40:26.985Z,2.90
2023-02-17T06:42:54.720Z,4.13
2023-02-17T06:45:21.660Z,3.22
2023-02-17T06:47:48.574Z,2.88
2023-02-17T06:50:16.004Z,3.17
2023-02-17T06:52:42.786Z,3.55
2023-02-17T06:55:09.722Z,2.85
2023-02-17T06:57:36.509Z,2.95
2023-02-17T07:00:04.930Z,3.40
2023-02-17T07:02:31.822Z,3.15
2023-02-17T07:04:58.618Z,3.05
2023-02-17T07:07:25.390Z,2.72
2023-02-17T07:09:52.108Z,3.55
2023-02-17T07:12:19.051Z,3.38
2023-02-17T07:14:45.803Z,2.92
2023-02-17T07:17:12.598Z,3.53
2023-02-17T07:19:39.316Z,3.83
2023-02-17T07:22:06.113Z,3.13
2023-02-17T07:24:34.077Z,3.67
2023-02-17T07:27:01.046Z,2.65
2023-02-17T07:29:28.060Z,3.85
2023-02-17T07:31:54.916Z,2.53
2023-02-17T07:34:22.172Z,3.05
2023-02-17T07:36:49.091Z,2.83
2023-02-17T07:39:16.019Z,3.85
2023-02-17T07:41:42.850Z,2.53
2023-02-17T07:44:10.190Z,3.15
2023-02-17T07:46:39.676Z,2.67
2023-02-17T07:49:06.640Z,3.15
2023-02-17T07:51:33.505Z,3.90
2023-02-17T07:54:01.737Z,3.25
2023-02-17T07:56:30.088Z,2.75
2023-02-17T07:58:56.948Z,3.90
2023-02-17T08:01:25.899Z,3.35
2023-02-17T08:03:52.969Z,3.05
2023-02-17T08:06:23.373Z,3.92
2023-02-17T08:09:10.136Z,3.13
2023-02-17T08:11:56.045Z,4.05
2023-02-17T08:14:24.683Z,3.45
2023-02-17T08:16:52.055Z,3.38
2023-02-17T08:19:18.898Z,4.30
2023-02-17T08:21:46.233Z,2.80
2023-02-17T08:24:16.216Z,3.65
2023-02-17T08:26:43.260Z,4.05
2023-02-17T08:29:10.097Z,3.65
2023-02-17T08:31:37.248Z,3.92
2023-02-17T08:34:06.978Z,4.07
2023-02-17T08:36:34.026Z,3.75
2023-02-17T08:39:01.507Z,3.78
2023-02-17T08:41:37.136Z,2.88
2023-02-17T08:44:09.430Z,3.45
2023-02-17T08:46:37.555Z,3.80
2023-02-17T08:49:06.131Z,3.50
2023-02-17T08:51:32.948Z,3.50
2023-02-17T08:54:01.169Z,3.03
2023-02-17T08:56:28.783Z,2.83
2023-02-17T08:58:56.175Z,4.13
2023-02-17T09:01:23.421Z,3.75
2023-02-17T09:03:52.048Z,3.35
2023-02-17T09:06:20.030Z,3.63
2023-02-17T09:08:46.826Z,3.60
2023-02-17T09:11:17.159Z,3.70
2023-02-17T09:13:47.388Z,3.70
2023-02-17T09:16:14.226Z,3.35
2023-02-17T09:18:41.094Z,3.45
2023-02-17T09:21:13.343Z,3.40
2023-02-17T09:23:40.955Z,2.95
2023-02-17T09:26:10.902Z,2.42
2023-02-17T09:28:38.426Z,3.03
2023-02-17T09:31:23.781Z,3.17
2023-02-17T09:33:51.178Z,3.00
2023-02-17T09:36:24.395Z,2.50
2023-02-17T09:38:51.810Z,2.80
2023-02-17T09:41:23.282Z,2.97
2023-02-17T09:43:51.720Z,3.10
2023-02-17T09:46:36.584Z,3.08
2023-02-17T09:49:17.671Z,2.75
2023-02-17T09:51:51.721Z,3.30
2023-02-17T09:54:35.068Z,2.60
2023-02-17T09:57:06.737Z,2.58
2023-02-17T09:59:42.176Z,3.08
2023-02-17T10:02:16.587Z,2.72
2023-02-17T10:04:46.880Z,3.65
2023-02-17T10:07:29.580Z,2.22
2023-02-17T10:10:04.634Z,2.53
2023-02-17T10:12:39.388Z,3.10
2023-02-17T10:15:17.930Z,3.90
2023-02-17T10:18:16.758Z,5.07
2023-02-17T10:21:07.605Z,4.00
2023-02-17T10:23:35.178Z,3.03
2023-02-17T10:26:39.371Z,3.40
2023-02-17T10:29:14.664Z,2.72
2023-02-17T10:31:45.276Z,3.35
2023-02-17T10:34:14.818Z,2.58
2023-02-17T10:37:06.311Z,2.50
2023-02-17T10:39:53.549Z,2.60
2023-02-17T10:42:28.165Z,2.72
2023-02-17T10:45:04.370Z,2.15
2023-02-17T10:47:31.686Z,2.72
2023-02-17T10:50:01.303Z,2.30
2023-02-17T10:52:41.081Z,2.35
2023-02-17T10:55:38.238Z,2.20
2023-02-17T10:58:19.409Z,2.45
2023-02-17T11:00:50.007Z,1.65
2023-02-17T11:03:22.198Z,2.28
2023-02-17T11:05:59.535Z,1.98
2023-02-17T11:08:34.630Z,2.03
2023-02-17T11:11:06.016Z,2.00
2023-02-17T11:13:40.343Z,2.83
2023-02-17T11:16:07.644Z,1.88
2023-02-17T11:18:44.607Z,1.98
2023-02-17T11:21:11.989Z,1.90
2023-02-17T11:24:04.193Z,2.08
2023-02-17T11:26:34.991Z,2.45
2023-02-17T11:29:21.878Z,2.50
2023-02-17T11:32:09.206Z,2.63
2023-02-17T11:34:39.169Z,2.30
2023-02-17T11:37:11.597Z,2.88
2023-02-17T11:39:47.715Z,3.20
2023-02-17T11:42:26.837Z,3.53
2023-02-17T11:44:56.377Z,2.17
2023-02-17T11:47:26.220Z,2.85
2023-02-17T11:50:26.111Z,6.38
2023-02-17T11:53:01.994Z,2.58
2023-02-17T11:55:59.477Z,2.40
2023-02-17T11:58:47.790Z,2.63
2023-02-17T12:01:53.390Z,2.60
2023-02-17T12:04:49.649Z,2.60
2023-02-17T12:07:35.211Z,2.15
2023-02-17T12:10:14.081Z,3.45
2023-02-17T12:12:59.131Z,2.22
2023-02-17T12:15:58.503Z,2.10
2023-02-17T12:18:49.901Z,2.42
2023-02-17T12:21:44.060Z,2.07
2023-02-17T12:24:54.197Z,2.45
2023-02-17T12:28:00.562Z,2.33
2023-02-17T12:30:39.828Z,2.08
2023-02-17T12:33:42.514Z,1.90
2023-02-17T12:38:44.050Z,2.00
2023-02-17T12:41:17.775Z,2.28
2023-02-17T12:43:51.755Z,1.60
2023-02-17T12:46:35.339Z,2.35
2023-02-17T12:49:06.612Z,1.73
2023-02-17T12:51:39.391Z,2.13
2023-02-17T12:54:15.223Z,1.85
2023-02-17T12:56:51.677Z,1.60
2023-02-17T12:59:27.688Z,1.85
2023-02-17T13:02:02.501Z,1.88
2023-02-17T13:04:31.616Z,2.15
2023-02-17T13:07:06.830Z,1.85
2023-02-17T13:09:37.712Z,1.98
2023-02-17T13:12:23.109Z,1.80
2023-02-17T13:15:11.567Z,2.00
2023-02-17T13:17:51.559Z,2.15
2023-02-17T13:20:18.589Z,1.70
2023-02-17T13:22:46.226Z,1.67
2023-02-17T13:25:28.732Z,1.83
2023-02-17T13:27:56.546Z,2.75
2023-02-17T13:30:26.431Z,2.67
2023-02-17T13:33:25.532Z,2.28
2023-02-17T13:35:52.513Z,2.45
2023-02-17T13:38:33.322Z,2.42
2023-02-17T13:41:04.474Z,2.05
2023-02-17T13:43:39.852Z,2.77
2023-02-17T13:46:08.344Z,2.03
2023-02-17T13:48:36.333Z,2.90
2023-02-17T13:51:07.329Z,2.28
2023-02-17T13:53:39.920Z,2.20
2023-02-17T13:56:22.912Z,2.90
2023-02-17T13:58:49.979Z,2.08
2023-02-17T14:01:26.309Z,3.28
2023-02-17T14:03:56.107Z,2.28
2023-02-17T14:06:26.224Z,2.30
2023-02-17T14:08:54.254Z,2.88
2023-02-17T14:11:24.771Z,2.78
2023-02-17T14:13:56.557Z,2.45
2023-02-17T14:16:38.384Z,2.00
2023-02-17T14:19:17.217Z,2.70
2023-02-17T14:22:02.944Z,2.03
2023-02-17T14:24:38.373Z,2.70
2023-02-17T14:27:14.064Z,1.98
2023-02-17T14:29:47.043Z,2.28
2023-02-17T14:32:31.603Z,2.47
2023-02-17T14:35:15.350Z,2.38
2023-02-17T14:37:43.162Z,2.55
2023-02-17T14:40:30.300Z,2.92
2023-02-17T14:42:57.149Z,2.63
2023-02-17T14:45:24.190Z,2.63
2023-02-17T14:47:51.037Z,2.55
2023-02-17T14:50:18.006Z,3.33
2023-02-17T14:52:47.574Z,1.95
2023-02-17T14:55:24.300Z,3.33
2023-02-17T14:57:51.200Z,2.80
2023-02-17T15:00:18.234Z,2.83
2023-02-17T15:02:45.600Z,2.95
2023-02-17T15:05:12.721Z,2.60
2023-02-17T15:07:39.637Z,2.65
2023-02-17T15:10:26.404Z,2.50
2023-02-17T15:12:53.980Z,3.35
2023-02-17T15:15:21.522Z,3.03
2023-02-17T15:17:50.853Z,3.20
2023-02-17T15:20:18.097Z,2.88
2023-02-17T15:22:45.302Z,3.33
2023-02-17T15:25:14.805Z,3.92
2023-02-17T15:27:42.195Z,3.22
2023-02-17T15:30:16.700Z,3.53
2023-02-17T15:32:44.544Z,2.83
2023-02-17T15:35:18.393Z,3.30
2023-02-17T15:37:45.613Z,3.58
2023-02-17T15:40:18.609Z,4.72
2023-02-17T15:42:49.530Z,3.13
2023-02-17T15:45:19.060Z,3.67
2023-02-17T15:47:47.175Z,2.85
2023-02-17T15:50:20.656Z,3.80
2023-02-17T15:52:47.954Z,3.88
2023-02-17T15:55:15.077Z,3.67
2023-02-17T15:57:46.640Z,4.03
2023-02-17T16:00:17.177Z,3.75
2023-02-17T16:02:44.140Z,3.53
2023-02-17T16:05:17.023Z,4.38
2023-02-17T16:07:44.286Z,4.65
2023-02-17T16:10:16.993Z,3.78
2023-02-17T16:12:44.337Z,3.75
2023-02-17T16:15:23.167Z,4.10
2023-02-17T16:17:50.977Z,4.40
2023-02-17T16:20:23.027Z,5.07
2023-02-17T16:25:18.469Z,3.58
2023-02-17T16:27:47.491Z,4.68
2023-02-17T16:30:22.028Z,3.17
2023-02-17T16:32:49.437Z,4.07
2023-02-17T16:35:22.514Z,4.03
2023-02-17T16:37:55.962Z,4.05
2023-02-17T16:40:26.435Z,3.65
2023-02-17T16:42:53.690Z,3.88
2023-02-17T16:45:22.911Z,3.83
2023-02-17T16:47:55.472Z,3.45
2023-02-17T16:50:23.998Z,3.45
2023-02-17T16:52:53.082Z,3.60
2023-02-17T16:55:21.765Z,3.47
2023-02-17T16:57:49.837Z,3.72
2023-02-17T17:00:23.217Z,4.25
2023-02-17T17:02:50.799Z,3.70
2023-02-17T17:05:21.289Z,3.72
2023-02-17T17:07:49.163Z,3.90
2023-02-17T17:10:26.760Z,3.45
2023-02-17T17:12:54.079Z,4.22
2023-02-17T17:15:21.549Z,3.47
2023-02-17T17:18:00.080Z,3.80
2023-02-17T17:20:32.196Z,5.00
2023-02-17T17:25:27.020Z,3.95
2023-02-17T17:27:54.212Z,3.78
2023-02-17T17:30:24.548Z,3.92
2023-02-17T17:32:51.831Z,4.07
2023-02-17T17:35:19.659Z,5.55
2023-02-17T17:37:46.386Z,3.72
2023-02-17T17:40:48.844Z,4.57
2023-02-17T17:45:49.108Z,4.25
2023-02-17T17:48:17.787Z,4.10
2023-02-17T17:50:45.087Z,4.50
2023-02-17T17:53:11.857Z,4.93
2023-02-17T17:55:38.697Z,3.97
2023-02-17T17:58:05.467Z,3.83
2023-02-17T18:00:32.720Z,4.03
2023-02-17T18:02:59.560Z,4.30
2023-02-17T18:05:26.412Z,4.22
2023-02-17T18:07:53.440Z,4.45
2023-02-17T18:10:20.500Z,4.38
2023-02-17T18:12:48.173Z,4.75
2023-02-17T18:15:16.963Z,4.25
2023-02-17T18:17:43.937Z,4.20
2023-02-17T18:20:12.144Z,4.07
2023-02-17T18:22:40.497Z,4.57
2023-02-17T18:25:07.754Z,4.63
2023-02-17T18:27:43.017Z,4.38
2023-02-17T18:30:12.304Z,3.97
2023-02-17T18:32:43.285Z,4.63
2023-02-17T18:35:11.100Z,4.68
2023-02-17T18:37:37.858Z,3.50
2023-02-17T18:40:04.984Z,4.40
2023-02-17T18:42:32.250Z,4.03
2023-02-17T18:44:59.019Z,5.07
2023-02-17T18:47:26.174Z,4.13
2023-02-17T18:49:52.923Z,4.78
2023-02-17T18:52:19.703Z,4.97
2023-02-17T18:54:46.530Z,3.88
2023-02-17T18:57:13.429Z,3.47
2023-02-17T18:59:40.211Z,3.53
2023-02-17T19:02:09.614Z,3.97
2023-02-17T19:04:36.436Z,4.00
2023-02-17T19:07:06.134Z,4.28
2023-02-17T19:09:44.314Z,3.78
2023-02-17T19:12:13.673Z,4.68
2023-02-17T19:14:41.710Z,4.40
2023-02-17T19:17:09.722Z,3.40
2023-02-17T19:19:40.815Z,3.78
2023-02-17T19:22:08.799Z,3.45
2023-02-17T19:24:37.280Z,4.38
2023-02-17T19:27:05.326Z,4.43
2023-02-17T19:29:32.552Z,4.32
2023-02-17T19:32:00.652Z,3.33
2023-02-17T19:34:28.374Z,3.55
2023-02-17T19:36:55.678Z,4.10
2023-02-17T19:39:22.445Z,3.63
2023-02-17T19:41:49.206Z,4.03
2023-02-17T19:44:16.003Z,4.35
2023-02-17T19:46:42.799Z,4.43
2023-02-17T19:49:09.512Z,4.35
2023-02-17T19:51:36.247Z,4.20
2023-02-17T19:54:02.963Z,4.03
2023-02-17T19:56:32.508Z,4.10
2023-02-17T19:59:00.157Z,3.88
2023-02-17T20:01:29.949Z,3.78
2023-02-17T20:03:58.056Z,3.88
2023-02-17T20:06:28.608Z,3.88
2023-02-17T20:09:00.241Z,4.60
2023-02-17T20:11:28.933Z,4.47
2023-02-17T20:13:57.836Z,3.72
2023-02-17T20:16:25.306Z,4.07
2023-02-17T20:18:54.078Z,4.30
2023-02-17T20:21:24.401Z,3.72
2023-02-17T20:23:51.961Z,4.32
2023-02-17T20:26:22.805Z,3.67
2023-02-17T20:28:50.078Z,4.22
2023-02-17T20:31:18.326Z,4.07
2023-02-17T20:33:45.514Z,3.90
2023-02-17T20:36:12.523Z,4.10
2023-02-17T20:38:40.206Z,4.60
2023-02-17T20:41:08.667Z,4.22
2023-02-17T20:43:38.044Z,4.35
2023-02-17T20:46:05.487Z,3.20
2023-02-17T20:48:32.818Z,4.30
2023-02-17T20:50:59.673Z,4.00
2023-02-17T20:53:26.791Z,3.88
2023-02-17T20:55:53.740Z,4.05
2023-02-17T20:58:20.899Z,3.58
2023-02-17T21:00:47.756Z,3.80
2023-02-17T21:03:14.612Z,3.42
2023-02-17T21:05:41.742Z,3.38
2023-02-17T21:08:09.071Z,3.45
2023-02-17T21:10:36.144Z,3.53
2023-02-17T21:13:03.022Z,3.58
2023-02-17T21:15:29.798Z,3.92
2023-02-17T21:17:56.600Z,3.25
2023-02-17T21:20:24.415Z,3.22
2023-02-17T21:22:51.438Z,3.60
2023-02-17T21:25:18.425Z,3.65
2023-02-17T21:27:45.273Z,3.25
2023-02-17T21:30:13.102Z,3.00
2023-02-17T21:32:40.435Z,3.40
2023-02-17T21:35:09.883Z,3.03
2023-02-17T21:37:38.912Z,3.10
2023-02-17T21:40:07.536Z,3.83
2023-02-17T21:42:54.730Z,3.40
2023-02-17T21:45:21.672Z,2.95
2023-02-17T21:47:48.509Z,2.88
2023-02-17T21:50:15.406Z,2.55
2023-02-17T21:52:42.211Z,2.97
2023-02-17T21:55:08.924Z,2.85
2023-02-17T21:57:35.701Z,2.83
2023-02-17T22:00:02.626Z,2.60
2023-02-17T22:02:29.473Z,3.05
2023-02-17T22:04:56.693Z,2.80
2023-02-17T22:07:23.529Z,3.00
2023-02-17T22:09:50.506Z,2.70
2023-02-17T22:12:17.298Z,2.38
2023-02-17T22:14:44.204Z,2.70
2023-02-17T22:17:10.967Z,2.15
2023-02-17T22:19:37.741Z,2.70
2023-02-17T22:22:04.570Z,2.08
2023-02-17T22:24:31.326Z,2.63
2023-02-17T22:26:58.126Z,2.28
2023-02-17T22:29:24.926Z,2.67
2023-02-17T22:31:56.197Z,1.80
2023-02-17T22:34:23.810Z,2.10
2023-02-17T22:36:50.554Z,2.00
2023-02-17T22:39:17.330Z,2.38
2023-02-17T22:41:44.291Z,2.33
2023-02-17T22:44:11.075Z,2.50
2023-02-17T22:46:37.876Z,2.35
2023-02-17T22:49:04.757Z,2.33
2023-02-17T22:51:36.255Z,2.17
2023-02-17T22:54:04.473Z,2.55
2023-02-17T22:56:31.691Z,2.38
2023-02-17T22:59:00.983Z,2.60
2023-02-17T23:01:30.255Z,3.60
2023-02-17T23:03:57.210Z,2.25
2023-02-17T23:06:28.660Z,2.13
2023-02-17T23:08:56.403Z,2.58
2023-02-17T23:11:45.806Z,2.40
2023-02-17T23:14:14.064Z,2.58
2023-02-17T23:16:40.933Z,2.53
2023-02-17T23:19:09.699Z,2.47
2023-02-17T23:21:37.637Z,2.30
2023-02-17T23:24:05.070Z,2.25
2023-02-17T23:26:31.991Z,1.98
2023-02-17T23:28:59.611Z,2.70
2023-02-17T23:31:26.514Z,2.88
2023-02-17T23:33:53.369Z,2.50
2023-02-17T23:36:20.156Z,2.63
2023-02-17T23:38:47.316Z,2.05
2023-02-17T23:41:14.141Z,2.38
2023-02-17T23:43:41.577Z,2.30
2023-02-17T23:46:08.938Z,2.15
2023-02-17T23:48:35.904Z,2.00
2023-02-17T23:51:04.626Z,2.20
2023-02-17T23:53:32.109Z,2.30
2023-02-17T23:56:01.981Z,1.98
2023-02-17T23:58:29.410Z,2.28
